HAN weather

Noi Bai International Airport
Hanoi, Ha Tay Province, Vietnam

Public forecast

Using degrees Celsius for public forecast. Weather courtesy of forecast.io.

METAR (pilot weather report)

Retrieved 2019/04/21 10:30 UTC (10 minutes ago):

VVNB 211030Z 14008KT 110V170 9000 SCT035 31/25 Q1002 NOSIG

TAF (pilot weather forecast)

Retrieved 2019/04/21 06:38 UTC (4 hours ago):

TAF VVNB 210500Z 2106/2206 12008KT 8000 SCT017 BECMG 2120/2121 4000 BR BECMG 2201/2202 7000 NSW